createdAt,value
2023-01-13T00:01:49.229Z,14.80
2023-01-13T00:04:16.084Z,16.70
2023-01-13T00:06:42.940Z,11.30
2023-01-13T00:09:09.860Z,16.67
2023-01-13T00:11:36.839Z,19.45
2023-01-13T00:14:03.632Z,17.67
2023-01-13T00:16:30.520Z,12.98
2023-01-13T00:18:57.490Z,16.20
2023-01-13T00:21:25.184Z,20.13
2023-01-13T00:23:54.174Z,16.00
2023-01-13T00:26:26.349Z,17.33
2023-01-13T00:29:00.388Z,13.10
2023-01-13T00:31:29.021Z,16.17
2023-01-13T00:34:00.565Z,18.83
2023-01-13T00:36:30.030Z,16.60
2023-01-13T00:38:57.429Z,12.55
2023-01-13T00:41:25.757Z,11.80
2023-01-13T00:43:53.067Z,13.98
2023-01-13T00:46:21.806Z,14.45
2023-01-13T00:48:49.774Z,12.88
2023-01-13T00:51:22.256Z,15.07
2023-01-13T00:53:51.590Z,21.85
2023-01-13T00:56:34.064Z,14.23
2023-01-13T00:59:05.866Z,13.52
2023-01-13T01:01:33.117Z,13.52
2023-01-13T01:04:00.257Z,15.40
2023-01-13T01:06:27.704Z,17.73
2023-01-13T01:08:55.605Z,16.92
2023-01-13T01:11:30.221Z,14.18
2023-01-13T01:13:59.295Z,18.42
2023-01-13T01:16:28.611Z,14.10
2023-01-13T01:18:56.424Z,18.30
2023-01-13T01:21:24.965Z,17.98
2023-01-13T01:23:51.719Z,12.63
2023-01-13T01:26:21.794Z,15.80
2023-01-13T01:28:48.609Z,16.05
2023-01-13T01:31:18.778Z,15.32
2023-01-13T01:33:47.619Z,16.70
2023-01-13T01:36:16.393Z,18.08
2023-01-13T01:38:44.010Z,11.32
2023-01-13T01:41:17.368Z,8.50
2023-01-13T01:44:19.450Z,23.88
2023-01-13T01:46:46.389Z,19.13
2023-01-13T01:49:18.320Z,18.45
2023-01-13T01:51:52.651Z,16.98
2023-01-13T01:54:26.104Z,18.67
2023-01-13T01:56:53.539Z,15.95
2023-01-13T01:59:20.472Z,14.05
2023-01-13T02:01:48.588Z,11.77
2023-01-13T02:04:22.896Z,15.07
2023-01-13T02:06:51.134Z,18.45
2023-01-13T02:09:18.292Z,18.45
2023-01-13T02:12:04.173Z,13.82
2023-01-13T02:14:32.811Z,20.35
2023-01-13T02:16:59.679Z,13.85
2023-01-13T02:19:58.955Z,25.13
2023-01-13T02:22:25.823Z,20.77
2023-01-13T02:25:02.506Z,10.82
2023-01-13T02:28:02.078Z,14.55
2023-01-13T02:30:50.929Z,17.00
2023-01-13T02:33:23.609Z,21.20
2023-01-13T02:36:05.022Z,16.90
2023-01-13T02:38:37.687Z,12.32
2023-01-13T02:41:29.177Z,16.58
2023-01-13T02:44:06.977Z,19.40
2023-01-13T02:46:33.793Z,16.67
2023-01-13T02:49:06.676Z,12.70
2023-01-13T02:51:35.297Z,20.98
2023-01-13T02:54:17.807Z,13.70
2023-01-13T02:56:48.524Z,17.77
2023-01-13T02:59:15.577Z,14.98
2023-01-13T03:01:43.183Z,14.30
2023-01-13T03:04:15.280Z,13.82
2023-01-13T03:06:54.534Z,14.90
2023-01-13T03:09:39.878Z,11.68
2023-01-13T03:14:46.448Z,19.92
2023-01-13T03:17:19.217Z,16.05
2023-01-13T03:20:11.170Z,12.77
2023-01-13T03:22:51.782Z,18.63
2023-01-13T03:25:28.644Z,22.77
2023-01-13T03:28:10.507Z,13.85
2023-01-13T03:30:46.825Z,17.42
2023-01-13T03:33:24.127Z,18.85
2023-01-13T03:35:54.593Z,17.05
2023-01-13T03:38:46.860Z,11.63
2023-01-13T03:41:26.634Z,12.27
2023-01-13T03:44:23.356Z,16.85
2023-01-13T03:47:18.340Z,12.68
2023-01-13T03:49:48.718Z,10.25
2023-01-13T03:52:30.892Z,12.65
2023-01-13T03:55:18.759Z,19.45
2023-01-13T03:58:02.539Z,20.63
2023-01-13T04:00:37.830Z,11.43
2023-01-13T04:03:12.392Z,13.23
2023-01-13T04:05:47.691Z,12.55
2023-01-13T04:08:24.949Z,20.23
2023-01-13T04:11:02.748Z,21.80
2023-01-13T04:13:35.434Z,11.38
2023-01-13T04:16:02.533Z,12.70
2023-01-13T04:18:31.570Z,19.92
2023-01-13T04:21:01.410Z,11.05
2023-01-13T04:23:29.308Z,16.73
2023-01-13T04:25:57.133Z,15.60
2023-01-13T04:28:24.459Z,15.40
2023-01-13T04:30:51.775Z,18.02
2023-01-13T04:33:20.057Z,15.38
2023-01-13T04:35:48.050Z,14.48
2023-01-13T04:38:17.825Z,11.13
2023-01-13T04:40:44.718Z,17.08
2023-01-13T04:43:12.008Z,12.70
2023-01-13T04:45:39.254Z,17.67
2023-01-13T04:48:08.898Z,16.10
2023-01-13T04:50:36.313Z,13.50
2023-01-13T04:53:03.709Z,13.68
2023-01-13T04:55:31.928Z,16.83
2023-01-13T04:58:04.153Z,18.33
2023-01-13T05:00:32.184Z,15.60
2023-01-13T05:02:59.753Z,16.40
2023-01-13T05:05:28.709Z,18.67
2023-01-13T05:07:55.684Z,16.75
2023-01-13T05:10:24.001Z,16.95
2023-01-13T05:13:09.592Z,16.48
2023-01-13T05:18:21.897Z,10.13
2023-01-13T05:20:50.088Z,10.05
2023-01-13T05:23:35.743Z,7.28
2023-01-13T05:26:02.591Z,11.80
2023-01-13T05:28:33.921Z,13.02
2023-01-13T05:31:00.914Z,9.05
2023-01-13T05:33:27.935Z,7.03
2023-01-13T05:35:54.712Z,8.40
2023-01-13T05:38:22.062Z,7.45
2023-01-13T05:41:07.557Z,10.68
2023-01-13T05:43:35.154Z,9.50
2023-01-13T05:46:05.965Z,13.20
2023-01-13T05:48:34.745Z,11.77
2023-01-13T05:51:03.328Z,11.60
2023-01-13T05:53:31.235Z,7.72
2023-01-13T05:55:58.801Z,11.73
2023-01-13T05:58:27.383Z,9.98
2023-01-13T06:01:00.319Z,12.63
2023-01-13T06:03:27.302Z,8.95
2023-01-13T06:05:58.850Z,9.52
2023-01-13T06:08:26.307Z,14.93
2023-01-13T06:10:53.546Z,9.00
2023-01-13T06:13:20.584Z,11.30
2023-01-13T06:15:47.544Z,9.10
2023-01-13T06:18:14.774Z,11.55
2023-01-13T06:20:41.896Z,15.65
2023-01-13T06:23:12.144Z,8.20
2023-01-13T06:25:47.699Z,36.72
2023-01-13T06:28:14.654Z,15.95
2023-01-13T06:30:51.313Z,12.07
2023-01-13T06:33:29.184Z,7.72
2023-01-13T06:36:01.777Z,12.88
2023-01-13T06:38:33.466Z,15.77
2023-01-13T06:41:00.372Z,6.95
2023-01-13T06:43:27.248Z,7.45
2023-01-13T06:45:56.237Z,7.90
2023-01-13T06:48:25.840Z,7.63
2023-01-13T06:50:52.706Z,5.85
2023-01-13T06:53:20.610Z,11.25
2023-01-13T06:55:47.884Z,11.45
2023-01-13T06:58:14.909Z,7.60
2023-01-13T07:00:41.949Z,8.75
2023-01-13T07:03:12.665Z,5.28
2023-01-13T07:05:41.161Z,5.22
2023-01-13T07:08:09.577Z,6.30
2023-01-13T07:10:37.212Z,5.30
2023-01-13T07:13:23.863Z,6.68
2023-01-13T07:16:04.815Z,6.35
2023-01-13T07:18:33.324Z,6.80
2023-01-13T07:21:11.288Z,5.50
2023-01-13T07:23:40.357Z,4.65
2023-01-13T07:26:11.148Z,4.75
2023-01-13T07:28:38.772Z,7.70
2023-01-13T07:31:06.724Z,5.07
2023-01-13T07:33:33.777Z,6.88
2023-01-13T07:36:05.148Z,5.85
2023-01-13T07:38:33.772Z,7.07
2023-01-13T07:41:24.197Z,7.05
2023-01-13T07:43:52.091Z,4.13
2023-01-13T07:46:19.354Z,4.00
2023-01-13T07:48:48.892Z,2.22
2023-01-13T07:51:16.216Z,3.15
2023-01-13T07:53:43.038Z,2.63
2023-01-13T07:56:10.637Z,2.67
2023-01-13T07:58:37.991Z,3.55
2023-01-13T08:01:09.477Z,2.92
2023-01-13T08:03:36.601Z,2.17
2023-01-13T08:06:04.436Z,4.20
2023-01-13T08:08:31.393Z,2.28
2023-01-13T08:11:03.410Z,3.22
2023-01-13T08:13:30.552Z,1.92
2023-01-13T08:16:16.293Z,1.50
2023-01-13T08:18:43.396Z,1.42
2023-01-13T08:21:15.141Z,1.65
2023-01-13T08:23:43.526Z,1.75
2023-01-13T08:26:13.928Z,1.42
2023-01-13T08:28:41.229Z,1.50
2023-01-13T08:31:12.076Z,1.73
2023-01-13T08:33:39.423Z,2.42
2023-01-13T08:36:08.669Z,2.67
2023-01-13T08:38:36.973Z,2.30
2023-01-13T08:41:36.984Z,2.17
2023-01-13T08:44:04.365Z,2.17
2023-01-13T08:46:31.308Z,2.42
2023-01-13T08:48:58.397Z,1.52
2023-01-13T08:51:25.328Z,2.08
2023-01-13T08:53:52.267Z,1.55
2023-01-13T08:56:19.230Z,1.35
2023-01-13T08:58:46.246Z,1.48
2023-01-13T09:01:21.516Z,1.02
2023-01-13T09:03:48.648Z,1.30
2023-01-13T09:06:15.622Z,2.35
2023-01-13T09:08:42.495Z,1.55
2023-01-13T09:11:37.838Z,1.80
2023-01-13T09:14:04.869Z,1.20
2023-01-13T09:16:31.684Z,1.33
2023-01-13T09:18:58.638Z,1.75
2023-01-13T09:21:26.691Z,0.98
2023-01-13T09:23:53.466Z,3.60
2023-01-13T09:26:21.844Z,2.63
2023-01-13T09:28:49.062Z,0.73
2023-01-13T09:31:15.856Z,3.15
2023-01-13T09:34:01.727Z,0.77
2023-01-13T09:36:28.480Z,0.70
2023-01-13T09:38:55.386Z,1.15
2023-01-13T09:41:54.508Z,1.85
2023-01-13T09:44:29.881Z,1.58
2023-01-13T09:47:03.768Z,1.08
2023-01-13T09:49:42.503Z,1.63
2023-01-13T09:52:27.034Z,0.60
2023-01-13T09:54:58.013Z,0.65
2023-01-13T09:57:28.541Z,0.95
2023-01-13T09:59:57.753Z,2.85
2023-01-13T10:02:24.593Z,3.10
2023-01-13T10:05:11.742Z,1.27
2023-01-13T10:07:49.548Z,2.53
2023-01-13T10:10:23.994Z,1.55
2023-01-13T10:13:09.847Z,2.42
2023-01-13T10:15:36.833Z,2.08
2023-01-13T10:18:29.465Z,1.90
2023-01-13T10:21:33.865Z,6.00
2023-01-13T10:24:11.951Z,4.45
2023-01-13T10:26:55.026Z,3.38
2023-01-13T10:29:25.523Z,4.32
2023-01-13T10:31:57.848Z,3.63
2023-01-13T10:34:26.069Z,4.63
2023-01-13T10:37:08.580Z,4.35
2023-01-13T10:39:41.549Z,3.63
2023-01-13T10:42:14.784Z,3.85
2023-01-13T10:45:00.663Z,3.45
2023-01-13T10:47:34.476Z,3.22
2023-01-13T10:50:13.246Z,6.22
2023-01-13T10:53:02.651Z,2.28
2023-01-13T10:55:35.004Z,2.45
2023-01-13T10:58:18.906Z,2.95
2023-01-13T11:00:46.729Z,7.75
2023-01-13T11:03:23.822Z,8.35
2023-01-13T11:05:52.773Z,5.80
2023-01-13T11:08:26.399Z,8.75
2023-01-13T11:10:59.156Z,8.38
2023-01-13T11:13:33.550Z,5.63
2023-01-13T11:16:03.938Z,3.40
2023-01-13T11:19:12.299Z,2.97
2023-01-13T11:21:42.712Z,5.32
2023-01-13T11:24:21.268Z,2.50
2023-01-13T11:26:56.604Z,4.22
2023-01-13T11:29:42.128Z,10.18
2023-01-13T11:32:14.860Z,6.07
2023-01-13T11:34:45.763Z,5.38
2023-01-13T11:37:27.871Z,4.38
2023-01-13T11:40:11.905Z,5.25
2023-01-13T11:42:44.338Z,9.98
2023-01-13T11:45:44.419Z,8.85
2023-01-13T11:48:21.265Z,10.82
2023-01-13T11:50:55.286Z,6.82
2023-01-13T11:53:37.495Z,14.05
2023-01-13T11:56:41.864Z,4.82
2023-01-13T11:59:37.906Z,3.95
2023-01-13T12:02:42.287Z,6.10
2023-01-13T12:05:19.296Z,8.23
2023-01-13T12:07:52.005Z,7.40
2023-01-13T12:10:46.707Z,11.20
2023-01-13T12:14:01.235Z,6.78
2023-01-13T12:16:32.189Z,7.90
2023-01-13T12:19:21.580Z,8.73
2023-01-13T12:22:09.385Z,7.32
2023-01-13T12:24:46.285Z,6.03
2023-01-13T12:27:21.105Z,7.82
2023-01-13T12:29:52.099Z,8.93
2023-01-13T12:32:24.602Z,20.25
2023-01-13T12:35:20.638Z,11.10
2023-01-13T12:37:55.667Z,12.23
2023-01-13T12:40:44.107Z,11.80
2023-01-13T12:43:39.139Z,11.93
2023-01-13T12:46:24.111Z,9.85
2023-01-13T12:48:59.937Z,20.83
2023-01-13T12:51:36.940Z,13.57
2023-01-13T12:54:35.510Z,12.57
2023-01-13T12:57:17.360Z,15.10
2023-01-13T12:59:49.256Z,22.02
2023-01-13T13:02:16.207Z,14.07
2023-01-13T13:04:52.211Z,8.82
2023-01-13T13:07:31.138Z,15.57
2023-01-13T13:10:03.033Z,10.95
2023-01-13T13:13:28.839Z,16.83
2023-01-13T13:16:27.650Z,14.60
2023-01-13T13:19:23.154Z,16.67
2023-01-13T13:22:14.861Z,14.60
2023-01-13T13:24:49.082Z,15.65
2023-01-13T13:27:19.539Z,15.15
2023-01-13T13:30:00.354Z,19.63
2023-01-13T13:32:33.539Z,15.93
2023-01-13T13:35:26.870Z,14.82
2023-01-13T13:39:08.832Z,12.50
2023-01-13T13:41:55.671Z,12.27
2023-01-13T13:44:49.433Z,16.30
2023-01-13T13:47:17.016Z,19.30
2023-01-13T13:49:56.164Z,19.80
2023-01-13T13:52:36.846Z,19.02
2023-01-13T13:55:18.943Z,14.18
2023-01-13T13:57:49.065Z,15.18
2023-01-13T14:00:15.976Z,21.83
2023-01-13T14:02:51.455Z,15.32
2023-01-13T14:05:20.169Z,21.60
2023-01-13T14:07:50.238Z,23.73
2023-01-13T14:10:24.983Z,19.15
2023-01-13T14:12:52.540Z,23.00
2023-01-13T14:15:36.773Z,19.45
2023-01-13T14:18:06.848Z,17.40
2023-01-13T14:20:34.875Z,18.45
2023-01-13T14:23:02.504Z,24.70
2023-01-13T14:25:36.919Z,17.55
2023-01-13T14:28:18.663Z,21.75
2023-01-13T14:30:45.697Z,23.95
2023-01-13T14:33:18.645Z,25.70
2023-01-13T14:36:13.994Z,25.75
2023-01-13T14:38:42.532Z,23.77
2023-01-13T14:41:21.528Z,19.85
2023-01-13T14:43:50.219Z,19.48
2023-01-13T14:46:18.013Z,20.63
2023-01-13T14:48:48.213Z,22.92
2023-01-13T14:51:24.119Z,23.05
2023-01-13T14:53:51.315Z,23.30
2023-01-13T14:56:39.424Z,28.73
2023-01-13T14:59:40.012Z,19.98
2023-01-13T15:02:38.067Z,26.17
2023-01-13T15:05:17.421Z,19.45
2023-01-13T15:07:57.127Z,23.33
2023-01-13T15:10:27.141Z,24.63
2023-01-13T15:12:57.292Z,20.73
2023-01-13T15:15:27.923Z,24.30
2023-01-13T15:17:54.829Z,20.95
2023-01-13T15:20:23.789Z,24.85
2023-01-13T15:22:52.499Z,24.10
2023-01-13T15:25:20.452Z,25.15
2023-01-13T15:27:51.121Z,22.67
2023-01-13T15:30:26.688Z,22.17
2023-01-13T15:32:55.293Z,20.48
2023-01-13T15:35:24.168Z,24.40
2023-01-13T15:37:51.798Z,18.83
2023-01-13T15:40:21.754Z,23.80
2023-01-13T15:43:06.996Z,10.57
2023-01-13T15:45:55.063Z,27.95
2023-01-13T15:48:24.040Z,14.52
2023-01-13T15:50:51.632Z,22.25
2023-01-13T15:53:18.508Z,15.85
2023-01-13T15:55:49.325Z,17.42
2023-01-13T15:58:20.442Z,22.83
2023-01-13T16:00:47.609Z,26.88
2023-01-13T16:03:15.476Z,28.95
2023-01-13T16:05:43.520Z,19.08
2023-01-13T16:08:22.901Z,22.83
2023-01-13T16:10:50.449Z,18.17
2023-01-13T16:13:18.066Z,35.33
2023-01-13T16:15:48.844Z,33.53
2023-01-13T16:18:24.300Z,22.23
2023-01-13T16:20:55.435Z,23.60
2023-01-13T16:23:23.404Z,24.42
2023-01-13T16:25:50.752Z,23.42
2023-01-13T16:28:24.256Z,27.58
2023-01-13T16:30:51.743Z,31.92
2023-01-13T16:33:18.676Z,20.25
2023-01-13T16:36:10.798Z,35.65
2023-01-13T16:38:32.405Z,40.95
2023-01-13T16:40:59.415Z,31.05
2023-01-13T16:43:27.034Z,40.67
2023-01-13T16:45:53.888Z,26.33
2023-01-13T16:48:23.205Z,42.40
2023-01-13T16:50:50.145Z,45.58
2023-01-13T16:53:17.189Z,38.58
2023-01-13T16:55:44.240Z,41.67
2023-01-13T16:58:20.023Z,33.67
2023-01-13T17:00:47.646Z,37.28
2023-01-13T17:03:16.227Z,53.65
2023-01-13T17:05:46.781Z,32.33
2023-01-13T17:08:20.721Z,43.60
2023-01-13T17:10:47.995Z,35.65
2023-01-13T17:13:17.013Z,53.95
2023-01-13T17:15:44.734Z,43.47
2023-01-13T17:18:13.676Z,41.00
2023-01-13T17:20:41.059Z,41.55
2023-01-13T17:23:10.983Z,44.22
2023-01-13T17:25:37.982Z,48.35
2023-01-13T17:28:05.231Z,46.58
2023-01-13T17:30:32.236Z,47.78
2023-01-13T17:32:59.331Z,57.50
2023-01-13T17:35:26.273Z,41.85
2023-01-13T17:37:54.122Z,44.53
2023-01-13T17:40:21.170Z,43.28
2023-01-13T17:42:48.133Z,39.58
2023-01-13T17:45:16.423Z,38.67
2023-01-13T17:47:43.461Z,30.42
2023-01-13T17:50:10.855Z,41.15
2023-01-13T17:52:37.922Z,37.50
2023-01-13T17:55:05.375Z,35.58
2023-01-13T17:57:32.261Z,23.58
2023-01-13T17:59:59.773Z,30.35
2023-01-13T18:02:26.638Z,46.25
2023-01-13T18:04:53.621Z,27.42
2023-01-13T18:07:20.640Z,33.03
2023-01-13T18:09:47.575Z,34.03
2023-01-13T18:12:14.802Z,42.72
2023-01-13T18:14:41.880Z,37.78
2023-01-13T18:17:08.835Z,30.58
2023-01-13T18:19:54.132Z,28.73
2023-01-13T18:25:30.181Z,42.30
2023-01-13T18:27:59.231Z,40.03
2023-01-13T18:30:26.864Z,34.35
2023-01-13T18:32:53.956Z,34.05
2023-01-13T18:35:20.876Z,29.02
2023-01-13T18:37:47.823Z,34.08
2023-01-13T18:40:14.708Z,29.35
2023-01-13T18:42:56.582Z,32.20
2023-01-13T18:45:26.821Z,28.15
2023-01-13T18:47:56.221Z,40.78
2023-01-13T18:50:23.724Z,27.08
2023-01-13T18:52:51.077Z,32.40
2023-01-13T18:55:18.616Z,35.97
2023-01-13T18:57:45.875Z,23.25
2023-01-13T19:00:17.412Z,32.00
2023-01-13T19:02:47.363Z,36.25
2023-01-13T19:05:14.508Z,30.58
2023-01-13T19:07:43.357Z,33.67
2023-01-13T19:10:13.076Z,31.15
2023-01-13T19:12:40.095Z,30.80
2023-01-13T19:15:07.639Z,34.00
2023-01-13T19:17:36.154Z,41.35
2023-01-13T19:20:05.413Z,27.65
2023-01-13T19:22:34.754Z,30.30
2023-01-13T19:25:02.465Z,24.95
2023-01-13T19:27:30.397Z,29.85
2023-01-13T19:29:58.951Z,33.28
2023-01-13T19:32:26.832Z,29.85
2023-01-13T19:34:55.277Z,38.08
2023-01-13T19:37:22.346Z,28.80
2023-01-13T19:39:49.296Z,31.27
2023-01-13T19:42:34.600Z,32.80
2023-01-13T19:45:20.264Z,39.88
2023-01-13T19:47:47.434Z,35.30
2023-01-13T19:50:14.362Z,39.15
2023-01-13T19:52:44.427Z,28.48
2023-01-13T19:55:12.645Z,32.13
2023-01-13T19:57:40.788Z,29.52
2023-01-13T20:00:09.086Z,39.50
2023-01-13T20:02:37.210Z,38.47
2023-01-13T20:05:06.570Z,34.45
2023-01-13T20:07:35.346Z,38.10
2023-01-13T20:10:02.858Z,41.80
2023-01-13T20:12:30.001Z,52.25
2023-01-13T20:14:57.252Z,39.72
2023-01-13T20:17:26.056Z,43.92
2023-01-13T20:19:55.413Z,41.70
2023-01-13T20:22:22.224Z,49.00
2023-01-13T20:24:54.993Z,49.15
2023-01-13T20:27:24.261Z,45.28
2023-01-13T20:29:51.365Z,42.30
2023-01-13T20:32:18.390Z,39.85
2023-01-13T20:34:45.303Z,50.65
2023-01-13T20:37:12.303Z,42.88
2023-01-13T20:39:42.067Z,36.80
2023-01-13T20:42:28.095Z,51.92
2023-01-13T20:44:59.770Z,49.63
2023-01-13T20:47:28.104Z,34.65
2023-01-13T20:49:54.941Z,43.63
2023-01-13T20:52:24.851Z,65.18
2023-01-13T20:54:52.049Z,44.30
2023-01-13T20:57:19.042Z,49.83
2023-01-13T20:59:46.505Z,35.20
2023-01-13T21:02:16.122Z,45.35
2023-01-13T21:04:43.416Z,47.90
2023-01-13T21:07:10.474Z,42.45
2023-01-13T21:09:37.572Z,47.38
2023-01-13T21:12:23.668Z,41.60
2023-01-13T21:15:09.371Z,39.95
2023-01-13T21:17:54.999Z,32.92
2023-01-13T21:20:24.187Z,32.40
2023-01-13T21:22:50.895Z,27.90
2023-01-13T21:25:19.261Z,45.65
2023-01-13T21:27:46.127Z,37.10
2023-01-13T21:30:15.167Z,32.13
2023-01-13T21:32:43.449Z,34.08
2023-01-13T21:35:10.658Z,48.92
2023-01-13T21:37:38.744Z,44.35
2023-01-13T21:40:09.308Z,48.53
2023-01-13T21:42:55.600Z,46.58
2023-01-13T21:45:41.870Z,30.40
2023-01-13T21:48:08.933Z,31.55
2023-01-13T21:50:38.222Z,39.70
2023-01-13T21:53:05.525Z,42.83
2023-01-13T21:55:33.056Z,37.97
2023-01-13T21:58:14.356Z,35.25
2023-01-13T22:00:43.677Z,29.40
2023-01-13T22:03:12.543Z,40.10
2023-01-13T22:05:40.156Z,36.53
2023-01-13T22:08:08.027Z,44.53
2023-01-13T22:10:35.643Z,38.22
2023-01-13T22:13:22.979Z,28.95
2023-01-13T22:15:50.120Z,32.63
2023-01-13T22:18:18.548Z,36.33
2023-01-13T22:20:45.723Z,34.10
2023-01-13T22:23:12.789Z,29.85
2023-01-13T22:25:39.787Z,29.70
2023-01-13T22:28:09.214Z,22.45
2023-01-13T22:30:36.577Z,39.40
2023-01-13T22:33:03.774Z,27.95
2023-01-13T22:35:30.701Z,45.83
2023-01-13T22:37:58.447Z,34.72
2023-01-13T22:40:25.478Z,38.70
2023-01-13T22:42:52.421Z,42.90
2023-01-13T22:45:19.424Z,32.30
2023-01-13T22:47:46.274Z,32.67
2023-01-13T22:50:13.276Z,30.65
2023-01-13T22:52:40.233Z,32.05
2023-01-13T22:55:08.000Z,40.90
2023-01-13T22:57:46.937Z,28.45
2023-01-13T23:00:15.633Z,31.00
2023-01-13T23:02:42.553Z,31.65
2023-01-13T23:05:09.824Z,41.72
2023-01-13T23:07:36.869Z,42.97
2023-01-13T23:10:04.586Z,32.35
2023-01-13T23:12:31.542Z,31.00
2023-01-13T23:14:58.484Z,37.08
2023-01-13T23:17:25.390Z,31.02
2023-01-13T23:19:52.443Z,24.33
2023-01-13T23:22:19.543Z,41.38
2023-01-13T23:24:46.564Z,32.70
2023-01-13T23:27:13.716Z,31.33
2023-01-13T23:29:40.616Z,35.55
2023-01-13T23:32:07.556Z,43.92
2023-01-13T23:34:34.616Z,41.92
2023-01-13T23:37:01.879Z,36.38
2023-01-13T23:39:28.750Z,29.83
2023-01-13T23:41:55.885Z,30.67
2023-01-13T23:44:22.875Z,27.95
2023-01-13T23:46:49.909Z,37.13
2023-01-13T23:49:17.114Z,42.60
2023-01-13T23:51:44.021Z,34.47
2023-01-13T23:54:10.986Z,40.00
2023-01-13T23:56:39.757Z,29.67
2023-01-13T23:59:06.832Z,34.97
